Puckett, Mississippi
Current Conditions -  °F | °C
As of 10:54 PM on Saturday 20 Dec 2014 (Local Time) from KJAN Reporting Station
Clear Clear  
Wind Chill: 38°   Ceiling: Unl
Heat Index: 41°   Visibility: 10mi
Dew Point: 38°   Wind: 5mph
Humidity: 89%   Direction: 40°NE
Pressure: 30.2"   Gusts: NA
Location:  32.08°N, 89.78°W
Report Text: KJAN 210454Z 04004KT 10SM CLR 05/03 A3020 RMK AO2 SLP226 LAST AUGMENTED OBSERVATION UNTIL 1100Z T00500033
Loading
Personal Weather Stations






























Interactive Weather Map New forecast layout! Learn more

10-Day Weather Forecast

Advertisements
Track Severe Weather on mobile